Tawakoni's Hourly Summary for Saturday, May 12, 2018
Hour Temp
(f)
RH
(%)
Solar Rad.
(MJ/m2)
Rainfall
(in)
Wind
(mph)
5/12/2018 12:00 AM 74 66 0 0 8.04
5/12/2018 1:00 AM 73 71 0 0 8.85
5/12/2018 2:00 AM 73 75 0 0 9.67
5/12/2018 3:00 AM 71 78 0 0 9.28
5/12/2018 4:00 AM 71 83 0 0 9.24
5/12/2018 5:00 AM 71 86 0 0 9.68
5/12/2018 6:00 AM 71 84 0 0 9.12
5/12/2018 7:00 AM 71 86 0.02 0 7.87
5/12/2018 8:00 AM 71 85 0.23 0 6.79
5/12/2018 9:00 AM 73 80 0.66 0 7.56
5/12/2018 10:00 AM 75 70 1.34 0 8.66
5/12/2018 11:00 AM 76 66 1.35 0 9.43
5/12/2018 12:00 PM 79 60 2.26 0 8.9
5/12/2018 1:00 PM 81 55 2.42 0 8.07
5/12/2018 2:00 PM 82 49 2.92 0 9.08
5/12/2018 3:00 PM 84 45 2.59 0 8.55
5/12/2018 4:00 PM 85 41 2.79 0 9.7
5/12/2018 5:00 PM 86 41 2.35 0 8.6
5/12/2018 6:00 PM 85 42 1.68 0 7.97
5/12/2018 7:00 PM 84 44 0.98 0 6.03
5/12/2018 8:00 PM 82 48 0.33 0 3.53
5/12/2018 9:00 PM 77 58 0.01 0 2.45
5/12/2018 10:00 PM 74 67 0 0 3.15
5/12/2018 11:00 PM 75 70 0 0 3.71
Data Summary 76 64 21.93 0.00 7.66